Time;durP1;ratioP1;P1;durP2;ratioP2;P2;SDS_P1;SDS_P2;PMS_P1;PMS_P2;Temp;Humidity;BMP_temperature;BMP_pressure;BME280_temperature;BME280_humidity;BME280_pressure;Samples;Min_cycle;Max_cycle;Signal;HPM_P1;HPM_P2
2022/08/24 00:01:26;;;;;;;52.10;38.10;;;;;;;18.56;100.00;99081.02;104870;1273;61829;-71
2022/08/24 00:03:56;;;;;;;52.30;38.50;;;;;;;18.58;100.00;99083.33;104881;1273;75415;-73
2022/08/24 00:06:24;;;;;;;54.10;39.00;;;;;;;18.59;100.00;99081.59;104918;1274;70466;-73
2022/08/24 00:08:53;;;;;;;57.30;40.10;;;;;;;18.60;100.00;99077.34;104955;1273;74688;-71
2022/08/24 00:11:20;;;;;;;51.20;38.50;;;;;;;18.62;100.00;99070.35;104935;1273;61284;-72
2022/08/24 00:13:48;;;;;;;54.30;37.20;;;;;;;18.64;100.00;99074.29;104867;1273;61254;-71
2022/08/24 00:16:15;;;;;;;52.50;39.60;;;;;;;18.65;100.00;99072.73;104728;1273;75466;-72
2022/08/24 00:18:43;;;;;;;57.40;41.10;;;;;;;18.67;100.00;99075.61;104850;1274;69424;-72
2022/08/24 00:21:11;;;;;;;58.00;40.50;;;;;;;18.69;100.00;99071.84;104802;1273;73319;-72
2022/08/24 00:23:38;;;;;;;54.40;39.50;;;;;;;18.70;100.00;99073.92;104893;1274;61351;-73
2022/08/24 00:26:06;;;;;;;55.80;40.10;;;;;;;18.71;100.00;99070.55;104871;1273;61577;-71
2022/08/24 00:28:33;;;;;;;57.10;42.00;;;;;;;18.71;100.00;99068.89;104908;1273;76089;-72
2022/08/24 00:31:01;;;;;;;53.60;40.10;;;;;;;18.72;100.00;99067.05;104917;1273;69912;-71
2022/08/24 00:33:28;;;;;;;59.30;39.90;;;;;;;18.72;100.00;99072.64;104832;1273;73163;-71
2022/08/24 00:35:54;;;;;;;55.80;40.20;;;;;;;18.73;100.00;99075.60;104833;1273;61287;-74
2022/08/24 00:38:21;;;;;;;57.40;41.00;;;;;;;18.74;100.00;99076.55;104819;1273;62022;-72
2022/08/24 00:40:49;;;;;;;62.70;43.50;;;;;;;18.75;100.00;99080.23;104851;1273;76527;-71
2022/08/24 00:43:22;;;;;;;58.80;39.20;;;;;;;18.75;100.00;99075.07;104927;1274;69243;-73
2022/08/24 00:46:11;;;;;;;55.40;41.30;;;;;;;18.74;100.00;99070.58;104904;1273;72898;-73
2022/08/24 00:48:41;;;;;;;63.00;41.80;;;;;;;18.74;100.00;99072.27;104900;1274;61311;-73
2022/08/24 00:51:17;;;;;;;60.60;42.30;;;;;;;18.72;100.00;99078.52;104895;1274;61352;-71
2022/08/24 00:53:54;;;;;;;60.20;44.10;;;;;;;18.71;100.00;99078.84;104887;1274;75681;-73
2022/08/24 00:56:27;;;;;;;60.50;42.90;;;;;;;18.69;100.00;99076.30;104878;1273;68868;-71
2022/08/24 00:59:01;;;;;;;59.10;41.70;;;;;;;18.66;100.00;99073.96;104855;1273;74763;-72
2022/08/24 01:01:32;;;;;;;64.30;44.00;;;;;;;18.61;100.00;99077.11;104855;1273;61391;-72
2022/08/24 01:03:59;;;;;;;59.70;43.40;;;;;;;18.58;100.00;99079.95;104854;1274;61791;-72
2022/08/24 01:06:27;;;;;;;59.90;42.00;;;;;;;18.57;100.00;99079.89;104865;1274;76968;-72
2022/08/24 01:08:54;;;;;;;58.00;42.30;;;;;;;18.57;100.00;99081.27;104559;1273;68654;-71
2022/08/24 01:11:25;;;;;;;56.00;41.10;;;;;;;18.60;100.00;99081.40;104849;1273;74507;-72
2022/08/24 01:13:53;;;;;;;55.20;41.30;;;;;;;18.60;100.00;99085.95;104913;1273;61695;-73
2022/08/24 01:19:24;;;;;;;54.30;40.00;;;;;;;18.62;100.00;99093.40;104870;1273;75477;-72
2022/08/24 01:22:05;;;;;;;54.90;38.20;;;;;;;18.63;100.00;99097.55;104875;1273;70610;-73
2022/08/24 01:24:35;;;;;;;48.50;36.00;;;;;;;18.64;100.00;99094.08;104852;1273;74810;-74
2022/08/24 01:27:03;;;;;;;50.60;36.60;;;;;;;18.65;100.00;99097.77;104886;1274;61411;-72
2022/08/24 01:29:30;;;;;;;50.40;38.30;;;;;;;18.64;100.00;99094.76;104940;1274;61319;-71
2022/08/24 01:31:57;;;;;;;49.00;36.10;;;;;;;18.65;100.00;99088.08;104865;1273;75211;-73
2022/08/24 01:34:25;;;;;;;50.50;36.20;;;;;;;18.65;100.00;99087.02;104909;1273;69370;-74
2022/08/24 01:36:59;;;;;;;48.50;35.80;;;;;;;18.63;100.00;99084.23;104849;1273;74213;-72
2022/08/24 01:39:30;;;;;;;50.20;35.70;;;;;;;18.62;100.00;99080.80;104860;1274;61256;-73
2022/08/24 01:41:57;;;;;;;48.60;35.70;;;;;;;18.60;100.00;99082.75;104844;1274;61387;-72
2022/08/24 01:44:28;;;;;;;51.50;33.80;;;;;;;18.60;100.00;99077.38;104866;1274;75394;-74
2022/08/24 01:46:55;;;;;;;49.80;35.40;;;;;;;18.60;100.00;99082.27;104908;1274;68875;-72
2022/08/24 01:49:28;;;;;;;48.10;33.60;;;;;;;18.59;100.00;99089.13;104788;1277;73569;-72
2022/08/24 01:51:55;;;;;;;52.50;35.20;;;;;;;18.60;100.00;99089.23;104862;1274;61420;-71
2022/08/24 01:54:22;;;;;;;51.20;35.20;;;;;;;18.60;100.00;99092.87;104817;1275;62859;-71
2022/08/24 01:56:49;;;;;;;49.50;35.20;;;;;;;18.59;100.00;99092.43;104858;1274;76661;-71
2022/08/24 01:59:15;;;;;;;52.30;36.90;;;;;;;18.60;100.00;99098.64;104818;1274;69521;-71
2022/08/24 05:24:00;;;;;;;92.20;44.90;;;;;;;19.12;100.00;99131.99;104915;1274;61326;-71
2022/08/24 05:26:28;;;;;;;95.20;45.20;;;;;;;19.17;100.00;99131.54;104874;1274;61931;-71
2022/08/24 05:29:01;;;;;;;100.40;44.00;;;;;;;19.22;100.00;99134.25;104913;1274;75527;-74
2022/08/24 05:31:31;;;;;;;96.90;43.70;;;;;;;19.29;100.00;99133.23;104900;1273;69171;-71
2022/08/24 05:33:59;;;;;;;98.70;45.70;;;;;;;19.37;100.00;99128.28;104914;1274;73714;-71
2022/08/24 05:36:32;;;;;;;92.40;43.00;;;;;;;19.44;100.00;99122.69;104884;1274;61388;-73
2022/08/24 05:39:01;;;;;;;91.50;44.50;;;;;;;19.52;100.00;99123.64;104912;1274;61278;-73
2022/08/24 05:41:28;;;;;;;92.80;43.90;;;;;;;19.61;100.00;99122.73;104923;1274;75371;-72
2022/08/24 05:43:56;;;;;;;93.60;43.90;;;;;;;19.65;100.00;99122.36;104898;1273;69427;-73
2022/08/24 05:46:22;;;;;;;95.20;43.90;;;;;;;19.72;100.00;99119.63;104898;1274;74418;-73
2022/08/24 05:48:49;;;;;;;90.50;43.30;;;;;;;19.76;100.00;99121.23;104881;1274;61391;-73
2022/08/24 05:51:16;;;;;;;86.30;42.60;;;;;;;19.79;100.00;99118.52;104899;1274;61309;-73
2022/08/24 05:53:43;;;;;;;82.40;40.30;;;;;;;19.84;100.00;99117.48;104879;1274;75555;-73
2022/08/24 05:56:12;;;;;;;88.30;42.50;;;;;;;19.89;100.00;99122.35;104914;1273;70307;-73
2022/08/24 05:58:40;;;;;;;79.40;40.80;;;;;;;19.99;100.00;99118.70;104890;1274;74756;-73
2022/08/24 06:01:09;;;;;;;78.60;40.00;;;;;;;20.08;100.00;99124.73;104876;1274;61332;-73
2022/08/24 06:03:36;;;;;;;78.70;39.60;;;;;;;20.18;100.00;99126.23;104916;1274;61505;-74
2022/08/24 06:06:06;;;;;;;74.60;37.20;;;;;;;20.23;100.00;99133.70;104922;1274;75445;-73
2022/08/24 06:08:35;;;;;;;74.80;39.30;;;;;;;20.23;100.00;99136.39;104962;1274;68858;-72
2022/08/24 06:11:01;;;;;;;78.50;40.60;;;;;;;20.24;100.00;99138.04;104906;1273;73513;-73
2022/08/24 06:13:29;;;;;;;79.80;39.20;;;;;;;20.27;100.00;99136.13;104877;1274;61297;-73
2022/08/24 06:16:22;;;;;;;83.00;40.50;;;;;;;20.31;100.00;99135.00;104783;1275;61316;-73
2022/08/24 06:18:51;;;;;;;77.30;39.80;;;;;;;20.45;100.00;99140.05;104320;1281;75170;-73
2022/08/24 06:21:23;;;;;;;80.70;40.30;;;;;;;20.50;100.00;99143.55;104347;1281;70252;-72
2022/08/24 06:23:50;;;;;;;79.90;38.50;;;;;;;20.58;100.00;99152.90;104350;1281;73101;-73
2022/08/24 06:29:05;;;;;;;69.70;37.30;;;;;;;20.68;100.00;99159.23;104345;1281;61951;-72
2022/08/24 06:31:41;;;;;;;66.50;34.70;;;;;;;20.71;100.00;99162.77;104312;1281;76358;-72
2022/08/24 06:34:09;;;;;;;67.60;37.50;;;;;;;20.71;100.00;99166.02;104113;1281;69501;-73
2022/08/24 06:36:37;;;;;;;68.00;38.00;;;;;;;20.67;100.00;99167.48;104330;1281;74423;-71
2022/08/24 06:39:04;;;;;;;67.50;35.70;;;;;;;20.66;100.00;99165.75;104320;1281;61259;-72
2022/08/24 06:41:31;;;;;;;68.20;36.90;;;;;;;20.71;100.00;99159.08;104468;1281;61858;-71
2022/08/24 06:43:58;;;;;;;61.50;34.10;;;;;;;20.77;100.00;99159.54;104373;1281;76994;-73
2022/08/24 06:46:25;;;;;;;65.30;35.10;;;;;;;20.80;100.00;99160.80;104335;1281;69533;-73
2022/08/24 06:48:52;;;;;;;68.00;34.70;;;;;;;20.87;100.00;99163.05;104327;1281;73404;-72
2022/08/24 06:51:24;;;;;;;64.60;36.10;;;;;;;20.98;100.00;99161.60;104326;1281;61251;-72
2022/08/24 06:53:52;;;;;;;64.30;35.80;;;;;;;21.12;100.00;99158.54;104371;1281;61326;-73
2022/08/24 06:56:19;;;;;;;58.90;34.40;;;;;;;21.24;100.00;99159.00;104593;1274;76392;-72
2022/08/24 06:58:46;;;;;;;66.30;35.90;;;;;;;21.34;100.00;99161.94;104915;1274;69387;-73
2022/08/24 07:01:16;;;;;;;63.50;35.30;;;;;;;21.43;100.00;99161.61;104512;1274;74275;-72
2022/08/24 07:03:43;;;;;;;61.30;35.50;;;;;;;21.48;100.00;99166.15;104930;1274;61286;-72
2022/08/24 07:06:12;;;;;;;62.40;33.90;;;;;;;21.54;100.00;99162.25;104932;1274;61635;-73
2022/08/24 07:08:41;;;;;;;59.80;33.00;;;;;;;21.61;100.00;99162.23;104989;1273;75416;-73
2022/08/24 07:11:10;;;;;;;56.90;34.60;;;;;;;21.65;100.00;99162.50;104646;1274;70878;-74
2022/08/24 07:13:37;;;;;;;56.60;34.00;;;;;;;21.70;100.00;99161.40;104738;1274;73308;-73
2022/08/24 07:16:04;;;;;;;55.60;33.90;;;;;;;21.77;100.00;99157.77;104796;1274;61433;-73
2022/08/24 07:18:32;;;;;;;56.60;33.00;;;;;;;21.78;100.00;99155.27;104897;1273;61410;-72
2022/08/24 07:21:00;;;;;;;54.60;33.00;;;;;;;21.81;100.00;99155.84;104910;1273;76390;-73
2022/08/24 07:23:27;;;;;;;50.60;33.90;;;;;;;21.88;100.00;99161.95;104947;1273;70701;-73
2022/08/24 07:25:54;;;;;;;60.70;33.60;;;;;;;21.94;100.00;99167.73;104919;1274;74391;-72
2022/08/24 07:28:22;;;;;;;56.00;33.30;;;;;;;21.94;100.00;99174.52;104903;1274;61345;-73
2022/08/24 07:30:48;;;;;;;51.60;32.80;;;;;;;21.96;100.00;99179.89;104912;1273;61214;-73
2022/08/24 07:33:15;;;;;;;53.10;32.80;;;;;;;21.99;100.00;99180.42;104838;1274;76955;-74
2022/08/24 07:35:42;;;;;;;51.80;32.10;;;;;;;22.02;100.00;99184.45;104519;1274;68966;-74
2022/08/24 07:38:11;;;;;;;46.80;31.20;;;;;;;22.04;100.00;99182.45;104918;1274;73055;-73
2022/08/24 07:40:38;;;;;;;48.90;32.40;;;;;;;22.08;100.00;99186.65;104917;1274;61301;-73
2022/08/24 07:43:05;;;;;;;48.80;31.20;;;;;;;22.13;100.00;99188.23;104917;1274;61253;-73
2022/08/24 07:45:33;;;;;;;49.70;32.00;;;;;;;22.22;100.00;99188.73;104931;1274;76073;-73
2022/08/24 07:48:01;;;;;;;44.80;30.60;;;;;;;22.31;100.00;99190.77;104609;1274;70388;-73
2022/08/24 07:50:29;;;;;;;50.30;33.30;;;;;;;22.33;100.00;99191.70;104919;1274;73970;-72
2022/08/24 07:52:56;;;;;;;49.50;31.90;;;;;;;22.35;100.00;99187.84;104948;1274;61731;-74
2022/08/24 07:55:24;;;;;;;45.00;31.60;;;;;;;22.31;100.00;99192.95;104906;1274;61303;-72
2022/08/24 07:57:51;;;;;;;46.30;30.00;;;;;;;22.33;100.00;99198.28;104896;1274;75313;-73
2022/08/24 08:00:19;;;;;;;39.30;28.70;;;;;;;22.38;100.00;99203.63;104916;1274;69096;-73
2022/08/24 08:02:46;;;;;;;39.00;27.50;;;;;;;22.38;100.00;99206.38;104994;1272;74499;-74
2022/08/24 08:05:16;;;;;;;39.60;27.30;;;;;;;22.34;100.00;99204.52;104897;1274;61295;-74
2022/08/24 08:07:43;;;;;;;38.10;27.50;;;;;;;22.42;100.00;99201.47;104900;1274;61265;-73
2022/08/24 08:10:11;;;;;;;43.90;28.70;;;;;;;22.58;100.00;99203.54;104622;1274;76277;-73
2022/08/24 08:12:39;;;;;;;40.10;28.60;;;;;;;22.73;100.00;99199.17;104656;1274;68638;-73
2022/08/24 08:15:08;;;;;;;38.60;28.90;;;;;;;22.83;100.00;99203.92;104925;1274;73356;-73
2022/08/24 08:17:37;;;;;;;41.00;28.30;;;;;;;22.85;100.00;99206.97;104427;1274;61297;-72
2022/08/24 08:20:06;;;;;;;38.00;28.40;;;;;;;22.87;100.00;99214.16;104921;1274;62190;-73
2022/08/24 08:25:19;;;;;;;39.80;28.00;;;;;;;22.96;100.00;99213.63;104902;1274;69499;-74
2022/08/24 08:27:45;;;;;;;35.40;26.60;;;;;;;23.03;100.00;99212.53;104935;1274;74712;-73
2022/08/24 08:30:14;;;;;;;31.90;26.10;;;;;;;23.05;100.00;99210.27;104927;1273;61263;-73
2022/08/24 08:32:41;;;;;;;34.40;25.80;;;;;;;23.07;100.00;99206.38;104958;1273;62462;-73
2022/08/24 08:35:09;;;;;;;33.80;25.30;;;;;;;23.15;100.00;99207.13;104891;1274;76859;-75
2022/08/24 08:37:35;;;;;;;33.90;25.90;;;;;;;23.19;100.00;99205.52;105059;1274;69349;-73
2022/08/24 08:40:05;;;;;;;31.20;25.00;;;;;;;23.27;100.00;99211.14;104587;1274;74464;-73
2022/08/24 08:42:55;;;;;;;31.40;24.30;;;;;;;23.36;100.00;99213.81;105021;1274;61287;-73
2022/08/24 08:45:28;;;;;;;29.80;25.00;;;;;;;23.42;100.00;99213.39;104916;1274;61357;-74
2022/08/24 08:48:12;;;;;;;30.50;24.00;;;;;;;23.49;100.00;99218.20;104925;1274;77464;-74
2022/08/24 08:51:07;;;;;;;28.00;23.70;;;;;;;23.50;100.00;99219.06;104912;1274;69407;-73
2022/08/24 08:54:08;;;;;;;28.40;23.50;;;;;;;23.56;100.00;99219.11;104911;1274;74333;-73
2022/08/24 08:57:04;;;;;;;29.50;23.90;;;;;;;23.66;100.00;99218.56;104894;1274;61320;-72
2022/08/24 08:59:51;;;;;;;34.30;24.60;;;;;;;23.73;100.00;99211.46;104312;1281;61318;-72
2022/08/24 09:02:54;;;;;;;29.30;24.20;;;;;;;23.86;100.00;99211.33;104332;1281;76815;-71
2022/08/24 09:05:42;;;;;;;29.60;24.20;;;;;;;23.98;100.00;99212.59;104337;1281;69849;-73
2022/08/24 09:08:24;;;;;;;29.60;23.90;;;;;;;24.08;100.00;99214.44;104330;1281;73505;-73
2022/08/24 09:10:54;;;;;;;31.80;25.00;;;;;;;24.23;100.00;99212.45;104379;1281;61479;-74
2022/08/24 09:13:30;;;;;;;;;;;;;;;24.38;100.00;99218.85;104427;1281;61474;-73
2022/08/24 09:16:33;;;;;;;31.30;22.90;;;;;;;24.47;100.00;99215.37;104333;1281;75589;-72
2022/08/24 09:19:32;;;;;;;29.30;22.40;;;;;;;24.65;100.00;99215.08;104358;1281;70731;-72
2022/08/24 09:22:10;;;;;;;28.10;24.70;;;;;;;24.74;100.00;99217.64;104418;1281;72950;-73
2022/08/24 09:24:52;;;;;;;43.80;24.40;;;;;;;24.80;100.00;99217.42;104441;1281;61627;-72
2022/08/24 09:27:32;;;;;;;31.40;24.30;;;;;;;24.85;100.00;99216.10;104450;1281;61186;-72
2022/08/24 09:30:15;;;;;;;30.20;23.70;;;;;;;24.86;100.00;99219.98;104382;1281;76816;-72
2022/08/24 09:32:54;;;;;;;27.70;22.80;;;;;;;24.93;100.00;99215.55;104413;1281;70436;-73
2022/08/24 09:35:53;;;;;;;26.70;22.50;;;;;;;24.94;100.00;99214.05;104343;1281;73870;-74
2022/08/24 09:38:46;;;;;;;29.70;23.60;;;;;;;24.82;100.00;99208.23;104409;1280;61285;-73
2022/08/24 09:41:44;;;;;;;28.80;24.10;;;;;;;24.93;100.00;99208.02;104502;1280;62444;-73
2022/08/24 09:44:13;;;;;;;27.40;22.30;;;;;;;25.06;100.00;99209.59;104528;1280;75169;-74
2022/08/24 09:47:19;;;;;;;24.10;21.20;;;;;;;25.08;100.00;99208.60;104553;1280;69496;-73
2022/08/24 09:50:29;;;;;;;25.20;22.40;;;;;;;25.11;100.00;99209.77;104500;1280;75338;-74
2022/08/24 09:53:11;;;;;;;;;;;;;;;25.27;100.00;99210.74;104017;1280;61406;-74
2022/08/24 09:55:52;;;;;;;26.10;21.60;;;;;;;25.41;100.00;99208.39;104577;1279;62527;-72
2022/08/24 09:58:49;;;;;;;27.60;23.10;;;;;;;25.56;100.00;99206.70;104517;1280;75685;-73
2022/08/24 10:01:41;;;;;;;27.40;22.80;;;;;;;25.83;100.00;99199.66;104458;1280;69207;-71
2022/08/24 10:04:30;;;;;;;24.70;22.10;;;;;;;26.15;100.00;99197.90;104141;1280;72906;-71
2022/08/24 10:07:18;;;;;;;26.40;22.90;;;;;;;26.35;100.00;99203.38;104486;1280;61367;-71
2022/08/24 10:10:23;;;;;;;25.50;22.60;;;;;;;26.47;100.00;99202.88;104543;1280;61441;-73
2022/08/24 10:13:03;;;;;;;27.30;22.80;;;;;;;26.65;100.00;99199.60;104507;1280;75741;-73
2022/08/24 10:16:07;;;;;;;24.70;21.90;;;;;;;26.62;100.00;99201.83;104396;1274;70360;-73
2022/08/24 10:18:40;;;;;;;24.80;22.20;;;;;;;26.47;100.00;99201.74;104957;1274;73447;-74
2022/08/24 10:21:35;;;;;;;28.40;22.80;;;;;;;26.26;100.00;99200.24;104916;1274;61342;-74
2022/08/24 10:24:21;;;;;;;30.80;22.90;;;;;;;25.94;100.00;99202.35;105018;1271;62173;-75
2022/08/24 10:27:00;;;;;;;30.70;24.10;;;;;;;25.64;100.00;99199.67;105020;1271;76443;-74
2022/08/24 10:29:48;;;;;;;29.80;25.00;;;;;;;25.51;100.00;99198.99;104994;1271;68554;-72
2022/08/24 10:32:29;;;;;;;25.60;23.00;;;;;;;25.51;100.00;99198.83;104975;1271;74475;-73
2022/08/24 10:35:24;;;;;;;25.20;21.70;;;;;;;25.61;100.00;99200.74;104985;1271;61383;-73
2022/08/24 10:41:03;;;;;;;25.30;22.60;;;;;;;25.86;100.00;99199.79;105032;1271;75313;-73
2022/08/24 10:43:56;;;;;;;23.70;21.10;;;;;;;26.05;100.00;99196.51;105019;1271;69237;-76
2022/08/24 10:46:46;;;;;;;23.90;21.60;;;;;;;26.22;100.00;99203.71;105077;1271;74334;-74
2022/08/24 10:49:23;;;;;;;26.50;22.40;;;;;;;26.29;100.00;99205.14;105037;1271;61378;-74
2022/08/24 10:52:26;;;;;;;27.40;21.90;;;;;;;26.46;100.00;99197.70;105064;1271;61295;-74
2022/08/24 10:54:53;;;;;;;27.90;21.80;;;;;;;26.80;100.00;99194.01;104335;1281;76760;-74
2022/08/24 10:57:41;;;;;;;26.20;20.80;;;;;;;27.03;100.00;99189.99;104343;1281;70150;-73
2022/08/24 11:00:17;;;;;;;28.10;21.70;;;;;;;27.24;100.00;99192.23;104330;1281;74530;-74
2022/08/24 11:02:46;;;;;;;27.60;21.90;;;;;;;27.25;100.00;99193.13;103976;1281;61331;-73
2022/08/24 11:05:26;;;;;;;26.70;22.10;;;;;;;27.22;100.00;99192.48;104329;1281;62601;-75
2022/08/24 11:07:58;;;;;;;25.80;21.00;;;;;;;27.42;100.00;99188.41;104114;1281;76429;-73
2022/08/24 11:10:29;;;;;;;29.10;23.20;;;;;;;27.66;100.00;99183.61;104378;1281;69485;-73
2022/08/24 11:13:17;;;;;;;26.20;22.30;;;;;;;27.77;100.00;99185.02;104501;1281;73827;-74
2022/08/24 11:15:53;;;;;;;24.60;21.40;;;;;;;27.64;100.00;99186.14;104394;1281;61515;-73
2022/08/24 11:18:21;;;;;;;27.10;21.60;;;;;;;27.62;100.00;99182.01;104349;1281;61765;-73
2022/08/24 11:20:52;;;;;;;29.10;21.80;;;;;;;27.56;100.00;99187.56;104395;1281;76545;-73
2022/08/24 11:23:22;;;;;;;29.80;21.80;;;;;;;27.43;100.00;99195.66;104397;1280;69081;-74
2022/08/24 11:26:11;;;;;;;30.90;22.20;;;;;;;27.31;100.00;99195.88;104342;1280;73301;-75
2022/08/24 11:28:59;;;;;;;27.00;22.30;;;;;;;27.23;100.00;99199.47;104416;1271;61476;-73
2022/08/24 11:31:38;;;;;;;30.00;20.60;;;;;;;27.29;100.00;99195.37;104987;1271;61301;-73
2022/08/24 11:34:16;;;;;;;28.30;21.60;;;;;;;27.45;100.00;99189.90;105004;1271;76397;-73
2022/08/24 11:36:43;;;;;;;30.10;21.70;;;;;;;27.65;100.00;99187.80;105034;1271;70020;-74
2022/08/24 11:39:20;;;;;;;30.50;22.40;;;;;;;27.90;100.00;99181.42;104990;1271;72566;-74
2022/08/24 11:42:20;;;;;;;26.40;21.50;;;;;;;28.15;100.00;99180.24;105025;1271;61288;-74
2022/08/24 11:45:01;;;;;;;31.30;21.80;;;;;;;28.24;100.00;99180.79;105016;1271;62151;-73
2022/08/24 11:47:49;;;;;;;29.40;21.40;;;;;;;28.06;100.00;99179.58;104985;1271;75153;-74
2022/08/24 11:50:38;;;;;;;25.60;20.10;;;;;;;28.10;100.00;99177.94;105006;1271;69010;-73
2022/08/24 11:53:32;;;;;;;24.60;21.60;;;;;;;28.22;100.00;99183.57;105138;1271;72703;-73
2022/08/24 11:56:12;;;;;;;25.10;20.00;;;;;;;28.34;100.00;99182.34;105004;1271;61401;-73
2022/08/24 11:58:58;;;;;;;24.00;20.20;;;;;;;28.49;100.00;99184.50;105008;1271;62089;-73
2022/08/24 12:01:58;;;;;;;27.50;22.10;;;;;;;28.52;100.00;99181.52;104998;1271;75589;-72
2022/08/24 12:05:04;;;;;;;34.10;21.60;;;;;;;28.34;100.00;99181.41;104887;1272;69240;-74
2022/08/24 12:07:54;;;;;;;29.30;20.80;;;;;;;28.20;100.00;99183.38;104364;1279;74481;-73
2022/08/24 12:10:55;;;;;;;31.60;22.00;;;;;;;28.15;100.00;99178.43;104377;1279;61672;-73
2022/08/24 12:13:24;;;;;;;29.30;21.10;;;;;;;28.06;100.00;99178.73;104383;1279;61483;-74
2022/08/24 12:16:15;;;;;;;26.90;20.60;;;;;;;27.88;100.00;99179.91;104385;1279;76353;-73
2022/08/24 12:18:44;;;;;;;29.70;22.40;;;;;;;27.73;100.00;99182.23;104059;1279;69436;-73
2022/08/24 12:21:16;;;;;;;;;;;;;;;27.58;100.00;99184.27;104410;1279;73492;-74
2022/08/24 12:23:48;;;;;;;30.50;22.10;;;;;;;27.65;100.00;99180.63;104439;1279;61317;-73
2022/08/24 12:26:28;;;;;;;30.30;22.20;;;;;;;27.78;100.00;99179.93;104414;1279;62386;-73
2022/08/24 12:29:01;;;;;;;26.80;21.60;;;;;;;28.05;100.00;99178.83;104423;1279;75408;-73
2022/08/24 12:31:46;;;;;;;32.60;22.10;;;;;;;28.26;100.00;99176.36;104394;1279;70423;-73
2022/08/24 12:34:54;;;;;;;26.70;21.50;;;;;;;28.46;100.00;99174.28;104389;1279;73424;-72
2022/08/24 12:37:27;;;;;;;29.40;22.30;;;;;;;28.59;100.00;99169.54;103434;1288;61782;-73
2022/08/24 12:39:55;;;;;;;29.30;20.30;;;;;;;28.87;100.00;99168.17;103577;1287;61619;-74
2022/08/24 12:42:33;;;;;;;29.90;21.80;;;;;;;29.04;100.00;99169.09;103548;1287;76640;-72
2022/08/24 12:45:09;;;;;;;32.70;21.20;;;;;;;29.21;100.00;99167.88;103882;1281;70334;-73
2022/08/24 12:47:41;;;;;;;28.70;20.90;;;;;;;29.29;100.00;99166.34;104369;1281;72932;-74
2022/08/24 12:50:35;;;;;;;31.50;22.20;;;;;;;29.30;100.00;99165.83;104307;1281;61372;-74
2022/08/24 12:53:11;;;;;;;31.50;22.00;;;;;;;29.25;100.00;99162.58;104314;1281;61454;-73
2022/08/24 12:55:58;;;;;;;32.30;22.00;;;;;;;29.25;100.00;99160.02;104323;1281;76220;-75
2022/08/24 12:58:42;;;;;;;34.40;21.10;;;;;;;29.21;100.00;99164.46;104357;1281;70664;-73
2022/08/24 13:01:13;;;;;;;35.40;21.90;;;;;;;29.09;100.00;99166.38;104304;1281;74173;-75
2022/08/24 13:03:42;;;;;;;34.50;21.90;;;;;;;29.10;100.00;99169.49;104287;1281;61331;-74
2022/08/24 13:06:38;;;;;;;29.50;20.00;;;;;;;29.15;100.00;99169.18;104097;1281;61229;-75
2022/08/24 13:09:29;;;;;;;31.60;20.30;;;;;;;29.17;100.00;99170.18;104337;1281;76392;-73
2022/08/24 13:11:59;;;;;;;26.20;19.20;;;;;;;29.18;100.00;99164.02;104360;1281;70389;-74
2022/08/24 13:14:28;;;;;;;32.80;20.70;;;;;;;29.23;100.00;99160.36;104622;1271;74384;-74
2022/08/24 13:16:57;;;;;;;30.00;19.70;;;;;;;29.20;100.00;99164.92;105052;1271;61192;-73
2022/08/24 13:19:32;;;;;;;31.60;20.10;;;;;;;29.18;100.00;99163.76;104987;1271;61303;-74
2022/08/24 13:22:31;;;;;;;24.10;18.90;;;;;;;29.26;100.00;99159.15;104731;1271;74191;-74
2022/08/24 13:25:21;;;;;;;26.70;18.10;;;;;;;29.25;100.00;99159.77;105013;1271;70599;-73
2022/08/24 13:28:01;;;;;;;30.40;20.50;;;;;;;29.13;100.00;99159.48;104993;1271;74329;-73
2022/08/24 13:30:32;;;;;;;27.80;20.40;;;;;;;29.13;100.00;99156.98;105013;1271;61295;-74
2022/08/24 13:33:04;;;;;;;26.30;20.20;;;;;;;29.12;100.00;99151.16;105085;1271;61336;-74
2022/08/24 13:35:56;;;;;;;29.20;19.70;;;;;;;29.14;100.00;99143.77;104702;1274;75467;-74
2022/08/24 13:38:22;;;;;;;27.20;20.70;;;;;;;29.15;100.00;99143.98;104544;1271;68612;-74
2022/08/24 13:41:01;;;;;;;33.40;19.90;;;;;;;29.15;100.00;99137.29;105020;1271;61322;-74
2022/08/24 13:43:53;;;;;;;31.10;19.10;;;;;;;29.10;100.00;99139.73;105039;1271;61304;-74
2022/08/24 13:46:28;;;;;;;30.30;19.40;;;;;;;29.01;100.00;99130.38;105014;1271;61353;-73
2022/08/24 13:49:23;;;;;;;30.50;19.80;;;;;;;28.89;100.00;99121.45;105033;1271;74923;-73
2022/08/24 13:52:26;;;;;;;29.30;19.30;;;;;;;28.76;100.00;99116.85;105009;1271;69441;-74
2022/08/24 13:55:25;;;;;;;26.90;18.60;;;;;;;28.64;100.00;99112.18;104364;1279;74457;-75
2022/08/24 13:58:29;;;;;;;24.80;18.80;;;;;;;28.66;100.00;99108.05;104347;1279;61491;-73
2022/08/24 14:01:21;;;;;;;24.70;17.50;;;;;;;28.64;100.00;99107.20;104374;1279;61906;-74
2022/08/24 14:03:55;;;;;;;21.70;17.00;;;;;;;28.57;100.00;99104.40;104367;1279;75251;-74
2022/08/24 14:06:50;;;;;;;24.40;17.80;;;;;;;28.48;100.00;99101.52;104479;1279;69191;-74
2022/08/24 14:09:44;;;;;;;30.00;18.00;;;;;;;28.34;100.00;99099.92;104453;1279;72579;-74
2022/08/24 14:12:35;;;;;;;29.10;18.00;;;;;;;28.17;100.00;99097.82;104394;1279;61278;-75
2022/08/24 14:15:20;;;;;;;25.60;19.70;;;;;;;28.17;100.00;99095.71;104435;1279;61465;-74
2022/08/24 14:18:13;;;;;;;26.10;18.50;;;;;;;28.35;100.00;99098.15;104356;1279;75430;-75
2022/08/24 14:20:55;;;;;;;26.80;20.00;;;;;;;28.58;100.00;99093.30;104429;1279;68896;-73
2022/08/24 14:23:25;;;;;;;26.90;18.30;;;;;;;28.67;100.00;99095.80;104381;1279;74347;-74
2022/08/24 14:26:31;;;;;;;24.10;18.50;;;;;;;28.51;100.00;99092.95;104362;1279;61530;-74
2022/08/24 14:29:16;;;;;;;25.80;18.40;;;;;;;28.37;100.00;99092.55;104559;1272;61303;-74
2022/08/24 14:31:52;;;;;;;26.40;18.70;;;;;;;28.31;100.00;99096.73;104974;1271;75513;-74
2022/08/24 14:34:43;;;;;;;25.80;19.10;;;;;;;28.37;100.00;99099.52;105018;1272;69288;-74
2022/08/24 14:37:13;;;;;;;26.70;18.00;;;;;;;28.41;100.00;99097.00;105027;1271;74100;-73
2022/08/24 14:40:16;;;;;;;26.40;19.70;;;;;;;28.40;100.00;99098.02;104979;1271;61293;-74
2022/08/24 14:43:20;;;;;;;28.50;19.50;;;;;;;28.34;100.00;99095.93;105044;1271;61797;-74
2022/08/24 14:46:06;;;;;;;26.30;18.70;;;;;;;28.14;100.00;99092.30;104885;1271;74231;-74
2022/08/24 14:48:41;;;;;;;25.80;19.90;;;;;;;27.93;100.00;99086.44;104863;1272;69312;-74
2022/08/24 14:51:22;;;;;;;26.10;19.10;;;;;;;27.75;100.00;99082.81;104969;1271;72667;-74
2022/08/24 14:54:16;;;;;;;30.20;19.70;;;;;;;27.55;100.00;99077.80;104768;1274;61394;-73
2022/08/24 14:56:48;;;;;;;26.60;19.40;;;;;;;27.32;100.00;99077.75;105029;1271;61393;-74
2022/08/24 14:59:44;;;;;;;31.30;20.80;;;;;;;27.17;100.00;99079.14;105007;1271;75119;-73
2022/08/24 15:02:29;;;;;;;25.50;19.70;;;;;;;27.07;100.00;99085.88;105024;1271;70229;-73
2022/08/24 15:05:22;;;;;;;31.30;21.40;;;;;;;27.14;100.00;99096.80;105017;1271;73440;-74
2022/08/24 15:07:57;;;;;;;27.20;20.50;;;;;;;27.26;100.00;99111.13;104043;1281;61325;-74
2022/08/24 15:10:56;;;;;;;28.20;20.20;;;;;;;27.39;100.00;99111.40;104276;1281;61329;-74
2022/08/24 15:13:37;;;;;;;24.50;20.70;;;;;;;27.52;100.00;99108.09;104314;1281;75792;-74
2022/08/24 15:16:30;;;;;;;29.00;21.00;;;;;;;27.54;100.00;99105.30;104350;1281;69424;-74
2022/08/24 15:19:03;;;;;;;28.30;20.20;;;;;;;27.57;100.00;99104.67;103703;1286;74407;-74
2022/08/24 15:22:05;;;;;;;32.20;23.00;;;;;;;27.60;100.00;99103.66;103947;1284;61307;-73